sensor_id;sensor_type;location;lat;lon;timestamp;P1;durP1;ratioP1;P2;durP2;ratioP2
28007;SDS011;15333;50.010;20.020;2023-07-31T00:00:02;4.50;;;3.45;;
28007;SDS011;15333;50.010;20.020;2023-07-31T00:03:06;4.80;;;3.50;;
28007;SDS011;15333;50.010;20.020;2023-07-31T00:06:06;4.95;;;3.55;;
28007;SDS011;15333;50.010;20.020;2023-07-31T00:09:07;5.63;;;3.15;;
28007;SDS011;15333;50.010;20.020;2023-07-31T00:12:08;9.15;;;3.63;;
28007;SDS011;15333;50.010;20.020;2023-07-31T00:15:09;5.80;;;3.08;;
28007;SDS011;15333;50.010;20.020;2023-07-31T00:18:10;3.92;;;3.22;;
28007;SDS011;15333;50.010;20.020;2023-07-31T00:21:11;3.72;;;3.22;;
28007;SDS011;15333;50.010;20.020;2023-07-31T00:24:12;4.85;;;3.63;;
28007;SDS011;15333;50.010;20.020;2023-07-31T00:27:13;3.90;;;3.38;;
28007;SDS011;15333;50.010;20.020;2023-07-31T00:30:14;5.50;;;3.42;;
28007;SDS011;15333;50.010;20.020;2023-07-31T00:33:15;3.92;;;3.20;;
28007;SDS011;15333;50.010;20.020;2023-07-31T00:36:15;5.00;;;3.03;;
28007;SDS011;15333;50.010;20.020;2023-07-31T00:39:18;4.88;;;3.35;;
28007;SDS011;15333;50.010;20.020;2023-07-31T00:42:20;5.03;;;3.25;;
28007;SDS011;15333;50.010;20.020;2023-07-31T00:45:23;5.40;;;3.38;;
28007;SDS011;15333;50.010;20.020;2023-07-31T00:48:24;5.22;;;3.67;;
28007;SDS011;15333;50.010;20.020;2023-07-31T00:51:26;4.47;;;3.67;;
28007;SDS011;15333;50.010;20.020;2023-07-31T00:54:26;4.30;;;3.50;;
28007;SDS011;15333;50.010;20.020;2023-07-31T00:57:27;4.78;;;3.63;;
28007;SDS011;15333;50.010;20.020;2023-07-31T01:00:28;8.30;;;3.55;;
28007;SDS011;15333;50.010;20.020;2023-07-31T01:03:33;5.47;;;3.90;;
28007;SDS011;15333;50.010;20.020;2023-07-31T01:06:36;3.92;;;3.33;;
28007;SDS011;15333;50.010;20.020;2023-07-31T01:13:17;4.50;;;3.72;;
28007;SDS011;15333;50.010;20.020;2023-07-31T01:16:19;7.18;;;3.90;;
28007;SDS011;15333;50.010;20.020;2023-07-31T01:19:24;4.18;;;3.33;;
28007;SDS011;15333;50.010;20.020;2023-07-31T01:32:21;4.38;;;3.35;;
28007;SDS011;15333;50.010;20.020;2023-07-31T01:35:23;6.47;;;3.95;;
28007;SDS011;15333;50.010;20.020;2023-07-31T01:38:25;7.03;;;3.70;;
28007;SDS011;15333;50.010;20.020;2023-07-31T01:41:26;6.38;;;4.10;;
28007;SDS011;15333;50.010;20.020;2023-07-31T01:44:27;7.43;;;3.53;;
28007;SDS011;15333;50.010;20.020;2023-07-31T01:47:28;5.60;;;3.80;;
28007;SDS011;15333;50.010;20.020;2023-07-31T01:50:29;4.68;;;4.10;;
28007;SDS011;15333;50.010;20.020;2023-07-31T01:53:31;8.10;;;4.05;;
28007;SDS011;15333;50.010;20.020;2023-07-31T01:56:32;6.15;;;3.80;;
28007;SDS011;15333;50.010;20.020;2023-07-31T01:59:33;4.65;;;3.80;;
28007;SDS011;15333;50.010;20.020;2023-07-31T02:02:34;5.78;;;4.50;;
28007;SDS011;15333;50.010;20.020;2023-07-31T02:05:35;5.38;;;3.97;;
28007;SDS011;15333;50.010;20.020;2023-07-31T02:08:36;5.20;;;3.90;;
28007;SDS011;15333;50.010;20.020;2023-07-31T02:11:37;5.93;;;4.30;;
28007;SDS011;15333;50.010;20.020;2023-07-31T02:14:38;5.15;;;4.15;;
28007;SDS011;15333;50.010;20.020;2023-07-31T02:17:39;6.13;;;4.10;;
28007;SDS011;15333;50.010;20.020;2023-07-31T02:20:39;5.82;;;4.40;;
28007;SDS011;15333;50.010;20.020;2023-07-31T02:23:40;5.70;;;4.30;;
28007;SDS011;15333;50.010;20.020;2023-07-31T02:26:41;8.02;;;4.38;;
28007;SDS011;15333;50.010;20.020;2023-07-31T02:29:42;4.13;;;3.63;;
28007;SDS011;15333;50.010;20.020;2023-07-31T02:32:43;5.13;;;4.22;;
28007;SDS011;15333;50.010;20.020;2023-07-31T02:35:44;5.65;;;4.40;;
28007;SDS011;15333;50.010;20.020;2023-07-31T02:38:45;6.07;;;4.18;;
28007;SDS011;15333;50.010;20.020;2023-07-31T02:41:46;7.45;;;4.05;;
28007;SDS011;15333;50.010;20.020;2023-07-31T02:44:47;6.70;;;4.32;;
28007;SDS011;15333;50.010;20.020;2023-07-31T02:47:48;6.35;;;4.30;;
28007;SDS011;15333;50.010;20.020;2023-07-31T02:50:49;4.60;;;4.13;;
28007;SDS011;15333;50.010;20.020;2023-07-31T02:53:50;6.15;;;3.97;;
28007;SDS011;15333;50.010;20.020;2023-07-31T02:56:51;4.95;;;4.05;;
28007;SDS011;15333;50.010;20.020;2023-07-31T02:59:52;6.65;;;4.30;;
28007;SDS011;15333;50.010;20.020;2023-07-31T03:02:53;6.78;;;4.45;;
28007;SDS011;15333;50.010;20.020;2023-07-31T03:05:54;7.18;;;4.47;;
28007;SDS011;15333;50.010;20.020;2023-07-31T03:08:54;5.57;;;4.40;;
28007;SDS011;15333;50.010;20.020;2023-07-31T03:11:56;5.90;;;4.28;;
28007;SDS011;15333;50.010;20.020;2023-07-31T03:14:56;8.30;;;4.75;;
28007;SDS011;15333;50.010;20.020;2023-07-31T03:17:58;6.80;;;4.45;;
28007;SDS011;15333;50.010;20.020;2023-07-31T03:20:59;6.57;;;4.53;;
28007;SDS011;15333;50.010;20.020;2023-07-31T03:24:00;6.15;;;5.00;;
28007;SDS011;15333;50.010;20.020;2023-07-31T03:27:00;6.10;;;4.28;;
28007;SDS011;15333;50.010;20.020;2023-07-31T03:30:02;7.15;;;4.68;;
28007;SDS011;15333;50.010;20.020;2023-07-31T03:33:04;8.52;;;4.80;;
28007;SDS011;15333;50.010;20.020;2023-07-31T03:36:05;6.15;;;4.20;;
28007;SDS011;15333;50.010;20.020;2023-07-31T03:39:06;7.38;;;4.82;;
28007;SDS011;15333;50.010;20.020;2023-07-31T03:42:07;7.38;;;4.65;;
28007;SDS011;15333;50.010;20.020;2023-07-31T03:45:09;6.53;;;4.15;;
28007;SDS011;15333;50.010;20.020;2023-07-31T03:48:10;16.77;;;9.00;;
28007;SDS011;15333;50.010;20.020;2023-07-31T03:51:50;7.65;;;5.28;;
28007;SDS011;15333;50.010;20.020;2023-07-31T03:54:51;8.45;;;4.90;;
28007;SDS011;15333;50.010;20.020;2023-07-31T03:57:51;7.78;;;4.72;;
28007;SDS011;15333;50.010;20.020;2023-07-31T04:00:52;7.45;;;4.72;;
28007;SDS011;15333;50.010;20.020;2023-07-31T04:03:53;5.65;;;4.45;;
28007;SDS011;15333;50.010;20.020;2023-07-31T04:06:54;8.50;;;4.65;;
28007;SDS011;15333;50.010;20.020;2023-07-31T04:09:55;7.05;;;4.43;;
28007;SDS011;15333;50.010;20.020;2023-07-31T04:12:56;6.65;;;4.35;;
28007;SDS011;15333;50.010;20.020;2023-07-31T04:15:57;7.55;;;3.97;;
28007;SDS011;15333;50.010;20.020;2023-07-31T04:18:58;6.53;;;4.53;;
28007;SDS011;15333;50.010;20.020;2023-07-31T04:21:59;4.53;;;3.92;;
28007;SDS011;15333;50.010;20.020;2023-07-31T04:25:00;6.50;;;3.92;;
28007;SDS011;15333;50.010;20.020;2023-07-31T04:28:00;6.40;;;4.78;;
28007;SDS011;15333;50.010;20.020;2023-07-31T04:31:02;7.55;;;4.32;;
28007;SDS011;15333;50.010;20.020;2023-07-31T04:34:03;5.95;;;4.57;;
28007;SDS011;15333;50.010;20.020;2023-07-31T04:37:04;5.15;;;4.65;;
28007;SDS011;15333;50.010;20.020;2023-07-31T04:40:05;6.65;;;4.05;;
28007;SDS011;15333;50.010;20.020;2023-07-31T04:43:06;13.00;;;6.95;;
28007;SDS011;15333;50.010;20.020;2023-07-31T04:46:07;6.70;;;4.57;;
28007;SDS011;15333;50.010;20.020;2023-07-31T04:49:08;5.72;;;4.03;;
28007;SDS011;15333;50.010;20.020;2023-07-31T04:52:09;5.05;;;4.00;;
28007;SDS011;15333;50.010;20.020;2023-07-31T04:55:10;7.20;;;5.30;;
28007;SDS011;15333;50.010;20.020;2023-07-31T04:58:11;5.63;;;3.88;;
28007;SDS011;15333;50.010;20.020;2023-07-31T05:01:12;8.23;;;5.97;;
28007;SDS011;15333;50.010;20.020;2023-07-31T05:04:13;7.18;;;4.65;;
28007;SDS011;15333;50.010;20.020;2023-07-31T05:07:15;9.93;;;4.90;;
28007;SDS011;15333;50.010;20.020;2023-07-31T05:10:17;6.18;;;4.57;;
28007;SDS011;15333;50.010;20.020;2023-07-31T05:13:18;7.13;;;5.10;;
28007;SDS011;15333;50.010;20.020;2023-07-31T05:16:19;7.25;;;5.18;;
28007;SDS011;15333;50.010;20.020;2023-07-31T05:19:20;8.52;;;5.43;;
28007;SDS011;15333;50.010;20.020;2023-07-31T05:22:20;7.88;;;6.32;;
28007;SDS011;15333;50.010;20.020;2023-07-31T05:25:21;8.10;;;6.55;;
28007;SDS011;15333;50.010;20.020;2023-07-31T05:28:22;9.85;;;6.90;;
28007;SDS011;15333;50.010;20.020;2023-07-31T05:31:23;11.32;;;7.47;;
28007;SDS011;15333;50.010;20.020;2023-07-31T05:34:24;10.48;;;8.57;;
28007;SDS011;15333;50.010;20.020;2023-07-31T05:37:25;13.32;;;8.93;;
28007;SDS011;15333;50.010;20.020;2023-07-31T05:40:26;25.85;;;16.33;;
28007;SDS011;15333;50.010;20.020;2023-07-31T05:43:27;12.15;;;8.98;;
28007;SDS011;15333;50.010;20.020;2023-07-31T05:46:28;13.45;;;9.70;;
28007;SDS011;15333;50.010;20.020;2023-07-31T05:49:29;11.55;;;9.85;;
28007;SDS011;15333;50.010;20.020;2023-07-31T05:52:30;13.05;;;9.45;;
28007;SDS011;15333;50.010;20.020;2023-07-31T05:55:31;13.93;;;10.48;;
28007;SDS011;15333;50.010;20.020;2023-07-31T05:58:32;10.98;;;9.65;;
28007;SDS011;15333;50.010;20.020;2023-07-31T06:01:33;10.75;;;9.05;;
28007;SDS011;15333;50.010;20.020;2023-07-31T06:04:34;12.75;;;8.70;;
28007;SDS011;15333;50.010;20.020;2023-07-31T06:07:35;10.80;;;9.27;;
28007;SDS011;15333;50.010;20.020;2023-07-31T06:10:35;14.45;;;10.23;;
28007;SDS011;15333;50.010;20.020;2023-07-31T06:13:36;15.25;;;9.85;;
28007;SDS011;15333;50.010;20.020;2023-07-31T06:16:37;12.65;;;9.75;;
28007;SDS011;15333;50.010;20.020;2023-07-31T06:19:38;11.15;;;9.13;;
28007;SDS011;15333;50.010;20.020;2023-07-31T06:22:39;11.00;;;9.90;;
28007;SDS011;15333;50.010;20.020;2023-07-31T06:25:40;12.38;;;10.38;;
28007;SDS011;15333;50.010;20.020;2023-07-31T06:28:41;14.50;;;11.57;;
28007;SDS011;15333;50.010;20.020;2023-07-31T06:31:42;11.65;;;10.45;;
28007;SDS011;15333;50.010;20.020;2023-07-31T06:34:43;11.15;;;9.80;;
28007;SDS011;15333;50.010;20.020;2023-07-31T06:37:44;12.93;;;9.70;;
28007;SDS011;15333;50.010;20.020;2023-07-31T06:40:45;11.48;;;9.32;;
28007;SDS011;15333;50.010;20.020;2023-07-31T06:43:46;16.15;;;9.68;;
28007;SDS011;15333;50.010;20.020;2023-07-31T06:46:46;11.93;;;7.70;;
28007;SDS011;15333;50.010;20.020;2023-07-31T06:49:47;12.02;;;7.82;;
28007;SDS011;15333;50.010;20.020;2023-07-31T06:52:48;11.65;;;8.48;;
28007;SDS011;15333;50.010;20.020;2023-07-31T06:55:49;10.18;;;8.25;;
28007;SDS011;15333;50.010;20.020;2023-07-31T06:58:52;9.35;;;8.00;;
28007;SDS011;15333;50.010;20.020;2023-07-31T07:01:53;8.70;;;7.68;;
28007;SDS011;15333;50.010;20.020;2023-07-31T07:04:53;9.68;;;8.10;;
28007;SDS011;15333;50.010;20.020;2023-07-31T07:07:55;9.65;;;8.50;;
28007;SDS011;15333;50.010;20.020;2023-07-31T07:10:55;9.70;;;8.30;;
28007;SDS011;15333;50.010;20.020;2023-07-31T07:13:56;9.43;;;8.05;;
28007;SDS011;15333;50.010;20.020;2023-07-31T07:16:57;12.43;;;7.70;;
28007;SDS011;15333;50.010;20.020;2023-07-31T07:19:58;13.57;;;7.68;;
28007;SDS011;15333;50.010;20.020;2023-07-31T07:23:00;20.77;;;10.32;;
28007;SDS011;15333;50.010;20.020;2023-07-31T07:26:01;10.45;;;7.00;;
28007;SDS011;15333;50.010;20.020;2023-07-31T07:29:01;14.88;;;7.18;;
28007;SDS011;15333;50.010;20.020;2023-07-31T07:32:03;10.13;;;7.35;;
28007;SDS011;15333;50.010;20.020;2023-07-31T07:35:04;9.20;;;6.55;;
28007;SDS011;15333;50.010;20.020;2023-07-31T07:38:05;9.95;;;6.03;;
28007;SDS011;15333;50.010;20.020;2023-07-31T07:41:06;7.55;;;5.68;;
28007;SDS011;15333;50.010;20.020;2023-07-31T07:44:07;9.10;;;5.13;;
28007;SDS011;15333;50.010;20.020;2023-07-31T07:47:08;13.25;;;6.75;;
28007;SDS011;15333;50.010;20.020;2023-07-31T07:50:09;8.98;;;4.82;;
28007;SDS011;15333;50.010;20.020;2023-07-31T07:53:10;7.53;;;4.78;;
28007;SDS011;15333;50.010;20.020;2023-07-31T07:56:11;7.88;;;4.78;;
28007;SDS011;15333;50.010;20.020;2023-07-31T07:59:12;7.97;;;4.95;;
28007;SDS011;15333;50.010;20.020;2023-07-31T08:02:13;9.65;;;5.00;;
28007;SDS011;15333;50.010;20.020;2023-07-31T08:05:14;10.80;;;4.90;;
28007;SDS011;15333;50.010;20.020;2023-07-31T08:08:15;7.72;;;4.50;;
28007;SDS011;15333;50.010;20.020;2023-07-31T08:11:16;6.65;;;4.55;;
28007;SDS011;15333;50.010;20.020;2023-07-31T08:14:18;6.43;;;4.72;;
28007;SDS011;15333;50.010;20.020;2023-07-31T08:17:18;9.80;;;4.60;;
28007;SDS011;15333;50.010;20.020;2023-07-31T08:20:19;10.40;;;5.18;;
28007;SDS011;15333;50.010;20.020;2023-07-31T08:23:20;10.00;;;4.55;;
28007;SDS011;15333;50.010;20.020;2023-07-31T08:26:21;8.73;;;4.80;;
28007;SDS011;15333;50.010;20.020;2023-07-31T08:29:22;7.97;;;4.47;;
28007;SDS011;15333;50.010;20.020;2023-07-31T08:32:23;7.40;;;4.75;;
28007;SDS011;15333;50.010;20.020;2023-07-31T08:35:24;9.43;;;4.50;;
28007;SDS011;15333;50.010;20.020;2023-07-31T08:38:26;8.35;;;4.95;;
28007;SDS011;15333;50.010;20.020;2023-07-31T08:41:27;6.22;;;4.47;;
28007;SDS011;15333;50.010;20.020;2023-07-31T08:44:29;6.03;;;4.15;;
28007;SDS011;15333;50.010;20.020;2023-07-31T08:47:31;5.93;;;4.10;;
28007;SDS011;15333;50.010;20.020;2023-07-31T08:50:32;6.78;;;4.10;;
28007;SDS011;15333;50.010;20.020;2023-07-31T08:53:33;7.28;;;4.50;;
28007;SDS011;15333;50.010;20.020;2023-07-31T08:56:34;9.07;;;4.10;;
28007;SDS011;15333;50.010;20.020;2023-07-31T08:59:36;6.90;;;4.22;;
28007;SDS011;15333;50.010;20.020;2023-07-31T09:02:46;7.03;;;4.25;;
28007;SDS011;15333;50.010;20.020;2023-07-31T09:05:52;5.30;;;3.90;;
28007;SDS011;15333;50.010;20.020;2023-07-31T09:08:55;8.27;;;3.88;;
28007;SDS011;15333;50.010;20.020;2023-07-31T09:11:57;8.55;;;3.92;;
28007;SDS011;15333;50.010;20.020;2023-07-31T09:14:59;8.82;;;4.30;;
28007;SDS011;15333;50.010;20.020;2023-07-31T09:18:01;9.50;;;4.15;;
28007;SDS011;15333;50.010;20.020;2023-07-31T09:21:04;8.48;;;3.67;;
28007;SDS011;15333;50.010;20.020;2023-07-31T09:24:06;9.48;;;3.80;;
28007;SDS011;15333;50.010;20.020;2023-07-31T09:27:07;7.18;;;3.83;;
28007;SDS011;15333;50.010;20.020;2023-07-31T09:30:08;9.68;;;4.38;;
28007;SDS011;15333;50.010;20.020;2023-07-31T09:33:09;6.90;;;3.45;;
28007;SDS011;15333;50.010;20.020;2023-07-31T09:36:10;8.35;;;4.38;;
28007;SDS011;15333;50.010;20.020;2023-07-31T09:39:11;7.75;;;3.75;;
28007;SDS011;15333;50.010;20.020;2023-07-31T09:42:13;7.65;;;3.90;;
28007;SDS011;15333;50.010;20.020;2023-07-31T09:45:14;4.53;;;3.15;;
28007;SDS011;15333;50.010;20.020;2023-07-31T09:48:18;7.00;;;3.60;;
28007;SDS011;15333;50.010;20.020;2023-07-31T09:51:25;6.68;;;3.80;;
28007;SDS011;15333;50.010;20.020;2023-07-31T09:54:27;14.18;;;4.00;;
28007;SDS011;15333;50.010;20.020;2023-07-31T09:57:28;13.10;;;4.50;;
28007;SDS011;15333;50.010;20.020;2023-07-31T10:00:30;6.88;;;3.78;;
28007;SDS011;15333;50.010;20.020;2023-07-31T10:03:32;7.13;;;3.40;;
28007;SDS011;15333;50.010;20.020;2023-07-31T10:06:34;9.10;;;3.88;;
28007;SDS011;15333;50.010;20.020;2023-07-31T10:09:36;8.05;;;3.60;;
28007;SDS011;15333;50.010;20.020;2023-07-31T10:12:37;6.43;;;3.00;;
28007;SDS011;15333;50.010;20.020;2023-07-31T10:15:38;8.43;;;3.25;;
28007;SDS011;15333;50.010;20.020;2023-07-31T10:18:41;6.38;;;3.15;;
28007;SDS011;15333;50.010;20.020;2023-07-31T10:21:43;7.70;;;3.20;;
28007;SDS011;15333;50.010;20.020;2023-07-31T10:24:46;6.05;;;2.83;;
28007;SDS011;15333;50.010;20.020;2023-07-31T10:27:47;9.25;;;3.40;;
28007;SDS011;15333;50.010;20.020;2023-07-31T10:30:49;8.63;;;3.00;;
28007;SDS011;15333;50.010;20.020;2023-07-31T10:33:52;6.43;;;3.03;;
28007;SDS011;15333;50.010;20.020;2023-07-31T10:37:19;5.95;;;2.70;;
28007;SDS011;15333;50.010;20.020;2023-07-31T10:40:25;6.72;;;2.65;;
28007;SDS011;15333;50.010;20.020;2023-07-31T10:43:27;4.80;;;2.95;;
28007;SDS011;15333;50.010;20.020;2023-07-31T10:46:28;4.50;;;2.55;;
28007;SDS011;15333;50.010;20.020;2023-07-31T10:49:30;8.80;;;3.30;;
28007;SDS011;15333;50.010;20.020;2023-07-31T10:52:34;5.55;;;2.92;;
28007;SDS011;15333;50.010;20.020;2023-07-31T10:55:40;7.25;;;2.90;;
28007;SDS011;15333;50.010;20.020;2023-07-31T10:58:43;3.47;;;2.33;;
28007;SDS011;15333;50.010;20.020;2023-07-31T11:01:53;5.68;;;2.70;;
28007;SDS011;15333;50.010;20.020;2023-07-31T11:05:07;6.35;;;2.92;;
28007;SDS011;15333;50.010;20.020;2023-07-31T11:08:15;4.15;;;2.70;;
28007;SDS011;15333;50.010;20.020;2023-07-31T11:11:22;4.03;;;2.50;;
28007;SDS011;15333;50.010;20.020;2023-07-31T11:14:23;4.53;;;3.20;;
28007;SDS011;15333;50.010;20.020;2023-07-31T11:17:25;8.50;;;2.78;;
28007;SDS011;15333;50.010;20.020;2023-07-31T11:20:26;5.45;;;2.72;;
28007;SDS011;15333;50.010;20.020;2023-07-31T11:23:30;6.05;;;2.88;;
28007;SDS011;15333;50.010;20.020;2023-07-31T11:26:30;5.32;;;3.00;;
28007;SDS011;15333;50.010;20.020;2023-07-31T11:29:31;6.90;;;2.85;;
28007;SDS011;15333;50.010;20.020;2023-07-31T11:32:32;5.32;;;2.92;;
28007;SDS011;15333;50.010;20.020;2023-07-31T11:35:34;4.55;;;2.78;;
28007;SDS011;15333;50.010;20.020;2023-07-31T11:38:45;4.43;;;2.88;;
28007;SDS011;15333;50.010;20.020;2023-07-31T11:41:46;9.20;;;6.25;;
28007;SDS011;15333;50.010;20.020;2023-07-31T11:44:47;7.65;;;2.88;;
28007;SDS011;15333;50.010;20.020;2023-07-31T11:47:48;4.43;;;2.58;;
28007;SDS011;15333;50.010;20.020;2023-07-31T11:50:50;4.90;;;2.75;;
28007;SDS011;15333;50.010;20.020;2023-07-31T11:53:53;4.47;;;2.75;;
28007;SDS011;15333;50.010;20.020;2023-07-31T11:56:57;7.28;;;2.60;;
28007;SDS011;15333;50.010;20.020;2023-07-31T12:00:02;5.97;;;4.50;;
28007;SDS011;15333;50.010;20.020;2023-07-31T12:03:09;6.25;;;2.85;;
28007;SDS011;15333;50.010;20.020;2023-07-31T12:06:10;4.45;;;2.38;;
28007;SDS011;15333;50.010;20.020;2023-07-31T12:09:11;5.57;;;2.78;;
28007;SDS011;15333;50.010;20.020;2023-07-31T12:12:19;3.65;;;2.50;;
28007;SDS011;15333;50.010;20.020;2023-07-31T12:15:21;3.92;;;2.50;;
28007;SDS011;15333;50.010;20.020;2023-07-31T12:18:22;7.25;;;2.50;;
28007;SDS011;15333;50.010;20.020;2023-07-31T12:21:24;7.53;;;2.85;;
28007;SDS011;15333;50.010;20.020;2023-07-31T12:24:28;5.40;;;2.88;;
28007;SDS011;15333;50.010;20.020;2023-07-31T12:27:32;6.95;;;2.70;;
28007;SDS011;15333;50.010;20.020;2023-07-31T12:30:34;3.95;;;2.58;;
28007;SDS011;15333;50.010;20.020;2023-07-31T12:33:35;4.60;;;2.40;;
28007;SDS011;15333;50.010;20.020;2023-07-31T12:36:39;4.22;;;2.65;;
28007;SDS011;15333;50.010;20.020;2023-07-31T12:39:40;3.45;;;2.20;;
28007;SDS011;15333;50.010;20.020;2023-07-31T12:42:41;4.60;;;2.58;;
28007;SDS011;15333;50.010;20.020;2023-07-31T12:45:42;6.78;;;2.60;;
28007;SDS011;15333;50.010;20.020;2023-07-31T12:48:43;5.63;;;2.50;;
28007;SDS011;15333;50.010;20.020;2023-07-31T12:51:44;8.32;;;2.42;;
28007;SDS011;15333;50.010;20.020;2023-07-31T12:54:45;3.67;;;2.30;;
28007;SDS011;15333;50.010;20.020;2023-07-31T12:57:46;3.83;;;2.83;;
28007;SDS011;15333;50.010;20.020;2023-07-31T13:00:47;6.40;;;2.40;;
28007;SDS011;15333;50.010;20.020;2023-07-31T13:03:48;4.57;;;2.40;;
28007;SDS011;15333;50.010;20.020;2023-07-31T13:06:49;10.25;;;2.45;;
28007;SDS011;15333;50.010;20.020;2023-07-31T13:09:50;4.72;;;2.65;;
28007;SDS011;15333;50.010;20.020;2023-07-31T13:12:51;3.50;;;2.65;;
28007;SDS011;15333;50.010;20.020;2023-07-31T13:15:52;4.03;;;2.58;;
28007;SDS011;15333;50.010;20.020;2023-07-31T13:18:53;8.07;;;2.42;;
28007;SDS011;15333;50.010;20.020;2023-07-31T13:21:54;5.25;;;2.58;;
28007;SDS011;15333;50.010;20.020;2023-07-31T13:24:55;3.30;;;2.10;;
28007;SDS011;15333;50.010;20.020;2023-07-31T13:27:55;3.88;;;2.50;;
28007;SDS011;15333;50.010;20.020;2023-07-31T13:30:56;5.32;;;2.75;;
28007;SDS011;15333;50.010;20.020;2023-07-31T13:33:57;8.45;;;2.97;;
28007;SDS011;15333;50.010;20.020;2023-07-31T13:36:58;4.28;;;2.65;;
28007;SDS011;15333;50.010;20.020;2023-07-31T13:39:59;4.15;;;2.40;;
28007;SDS011;15333;50.010;20.020;2023-07-31T13:43:01;3.70;;;2.58;;
28007;SDS011;15333;50.010;20.020;2023-07-31T13:46:02;7.20;;;2.88;;
28007;SDS011;15333;50.010;20.020;2023-07-31T13:49:07;5.25;;;2.88;;
28007;SDS011;15333;50.010;20.020;2023-07-31T13:52:08;6.90;;;2.47;;
28007;SDS011;15333;50.010;20.020;2023-07-31T13:55:09;6.75;;;2.85;;
28007;SDS011;15333;50.010;20.020;2023-07-31T13:58:10;5.28;;;2.58;;
28007;SDS011;15333;50.010;20.020;2023-07-31T14:01:11;11.13;;;6.50;;
28007;SDS011;15333;50.010;20.020;2023-07-31T14:04:12;3.35;;;2.53;;
28007;SDS011;15333;50.010;20.020;2023-07-31T14:07:13;3.50;;;2.95;;
28007;SDS011;15333;50.010;20.020;2023-07-31T14:10:14;3.55;;;3.10;;
28007;SDS011;15333;50.010;20.020;2023-07-31T14:13:15;3.08;;;2.50;;
28007;SDS011;15333;50.010;20.020;2023-07-31T14:16:16;7.82;;;2.92;;
28007;SDS011;15333;50.010;20.020;2023-07-31T14:19:17;21.50;;;5.82;;
28007;SDS011;15333;50.010;20.020;2023-07-31T14:22:27;6.22;;;2.60;;
28007;SDS011;15333;50.010;20.020;2023-07-31T14:25:31;4.35;;;2.45;;
28007;SDS011;15333;50.010;20.020;2023-07-31T14:28:32;7.20;;;2.90;;
28007;SDS011;15333;50.010;20.020;2023-07-31T14:31:33;3.15;;;2.40;;
28007;SDS011;15333;50.010;20.020;2023-07-31T14:34:33;4.05;;;2.58;;
28007;SDS011;15333;50.010;20.020;2023-07-31T14:37:41;3.85;;;2.60;;
28007;SDS011;15333;50.010;20.020;2023-07-31T14:40:43;5.68;;;2.65;;
28007;SDS011;15333;50.010;20.020;2023-07-31T14:43:45;6.35;;;2.83;;
28007;SDS011;15333;50.010;20.020;2023-07-31T14:46:45;7.88;;;2.15;;
28007;SDS011;15333;50.010;20.020;2023-07-31T14:49:47;4.05;;;2.05;;
28007;SDS011;15333;50.010;20.020;2023-07-31T14:52:48;7.07;;;2.78;;
28007;SDS011;15333;50.010;20.020;2023-07-31T14:55:49;3.70;;;2.28;;
28007;SDS011;15333;50.010;20.020;2023-07-31T14:58:50;5.25;;;2.40;;
28007;SDS011;15333;50.010;20.020;2023-07-31T15:01:51;6.93;;;2.63;;
28007;SDS011;15333;50.010;20.020;2023-07-31T15:04:52;4.97;;;2.20;;
28007;SDS011;15333;50.010;20.020;2023-07-31T15:07:53;2.75;;;1.85;;
28007;SDS011;15333;50.010;20.020;2023-07-31T15:10:54;7.80;;;2.55;;
28007;SDS011;15333;50.010;20.020;2023-07-31T15:13:57;5.25;;;2.30;;
28007;SDS011;15333;50.010;20.020;2023-07-31T15:16:58;10.93;;;5.72;;
28007;SDS011;15333;50.010;20.020;2023-07-31T15:19:59;6.28;;;2.72;;
28007;SDS011;15333;50.010;20.020;2023-07-31T15:23:00;5.03;;;2.70;;
28007;SDS011;15333;50.010;20.020;2023-07-31T15:26:01;3.85;;;2.22;;
28007;SDS011;15333;50.010;20.020;2023-07-31T15:29:03;3.42;;;1.92;;
28007;SDS011;15333;50.010;20.020;2023-07-31T15:32:09;6.68;;;2.58;;
28007;SDS011;15333;50.010;20.020;2023-07-31T15:35:10;5.25;;;2.30;;
28007;SDS011;15333;50.010;20.020;2023-07-31T15:38:11;7.20;;;2.47;;
28007;SDS011;15333;50.010;20.020;2023-07-31T15:41:12;9.13;;;2.50;;
28007;SDS011;15333;50.010;20.020;2023-07-31T15:44:13;8.30;;;2.75;;
28007;SDS011;15333;50.010;20.020;2023-07-31T15:47:14;3.60;;;2.13;;
28007;SDS011;15333;50.010;20.020;2023-07-31T15:50:15;3.40;;;2.40;;
28007;SDS011;15333;50.010;20.020;2023-07-31T15:53:16;5.95;;;2.85;;
28007;SDS011;15333;50.010;20.020;2023-07-31T15:56:17;3.22;;;2.20;;
28007;SDS011;15333;50.010;20.020;2023-07-31T15:59:18;4.43;;;2.40;;
28007;SDS011;15333;50.010;20.020;2023-07-31T16:02:19;4.28;;;2.67;;
28007;SDS011;15333;50.010;20.020;2023-07-31T16:05:20;6.10;;;2.90;;
28007;SDS011;15333;50.010;20.020;2023-07-31T16:08:21;4.25;;;2.75;;
28007;SDS011;15333;50.010;20.020;2023-07-31T16:11:22;3.97;;;2.70;;
28007;SDS011;15333;50.010;20.020;2023-07-31T16:14:23;6.07;;;2.90;;
28007;SDS011;15333;50.010;20.020;2023-07-31T16:17:24;3.88;;;2.38;;
28007;SDS011;15333;50.010;20.020;2023-07-31T16:20:25;4.45;;;2.25;;
28007;SDS011;15333;50.010;20.020;2023-07-31T16:23:26;4.50;;;2.38;;
28007;SDS011;15333;50.010;20.020;2023-07-31T16:26:27;5.47;;;2.72;;
28007;SDS011;15333;50.010;20.020;2023-07-31T16:29:29;7.57;;;2.65;;
28007;SDS011;15333;50.010;20.020;2023-07-31T16:32:30;8.07;;;2.65;;
28007;SDS011;15333;50.010;20.020;2023-07-31T16:35:31;6.75;;;2.60;;
28007;SDS011;15333;50.010;20.020;2023-07-31T16:38:32;4.30;;;2.63;;
28007;SDS011;15333;50.010;20.020;2023-07-31T16:41:33;8.15;;;2.88;;
28007;SDS011;15333;50.010;20.020;2023-07-31T16:44:34;8.30;;;2.38;;
28007;SDS011;15333;50.010;20.020;2023-07-31T16:47:35;4.88;;;2.30;;
28007;SDS011;15333;50.010;20.020;2023-07-31T16:50:36;7.88;;;2.42;;
28007;SDS011;15333;50.010;20.020;2023-07-31T16:53:37;8.50;;;3.00;;
28007;SDS011;15333;50.010;20.020;2023-07-31T16:56:40;4.90;;;2.65;;
28007;SDS011;15333;50.010;20.020;2023-07-31T16:59:41;4.88;;;2.10;;
28007;SDS011;15333;50.010;20.020;2023-07-31T17:02:42;7.95;;;3.03;;
28007;SDS011;15333;50.010;20.020;2023-07-31T17:05:43;7.25;;;2.80;;
28007;SDS011;15333;50.010;20.020;2023-07-31T17:08:44;7.07;;;2.58;;
28007;SDS011;15333;50.010;20.020;2023-07-31T17:11:44;3.83;;;2.40;;
28007;SDS011;15333;50.010;20.020;2023-07-31T17:14:45;10.13;;;4.18;;
28007;SDS011;15333;50.010;20.020;2023-07-31T17:17:49;4.72;;;2.30;;
28007;SDS011;15333;50.010;20.020;2023-07-31T17:20:52;7.88;;;3.40;;
28007;SDS011;15333;50.010;20.020;2023-07-31T17:23:53;9.45;;;2.67;;
28007;SDS011;15333;50.010;20.020;2023-07-31T17:26:55;4.85;;;2.08;;
28007;SDS011;15333;50.010;20.020;2023-07-31T17:29:55;3.92;;;2.25;;
28007;SDS011;15333;50.010;20.020;2023-07-31T17:32:57;7.20;;;2.08;;
28007;SDS011;15333;50.010;20.020;2023-07-31T17:35:58;4.88;;;2.35;;
28007;SDS011;15333;50.010;20.020;2023-07-31T17:38:59;4.78;;;2.00;;
28007;SDS011;15333;50.010;20.020;2023-07-31T17:42:00;5.32;;;2.78;;
28007;SDS011;15333;50.010;20.020;2023-07-31T17:45:01;7.95;;;2.20;;
28007;SDS011;15333;50.010;20.020;2023-07-31T17:48:03;7.75;;;2.65;;
28007;SDS011;15333;50.010;20.020;2023-07-31T17:51:04;5.07;;;2.28;;
28007;SDS011;15333;50.010;20.020;2023-07-31T17:54:04;5.30;;;2.80;;
28007;SDS011;15333;50.010;20.020;2023-07-31T17:57:06;5.05;;;2.33;;
28007;SDS011;15333;50.010;20.020;2023-07-31T18:00:07;11.70;;;2.47;;
28007;SDS011;15333;50.010;20.020;2023-07-31T18:03:09;7.97;;;3.10;;
28007;SDS011;15333;50.010;20.020;2023-07-31T18:06:12;4.65;;;2.50;;
28007;SDS011;15333;50.010;20.020;2023-07-31T18:09:13;7.40;;;3.05;;